createdAt,value
2022-08-18T00:01:48.781Z,25.38
2022-08-18T00:04:34.782Z,25.33
2022-08-18T00:07:02.955Z,25.25
2022-08-18T00:09:32.829Z,25.28
2022-08-18T00:12:01.624Z,25.27
2022-08-18T00:14:28.644Z,25.26
2022-08-18T00:16:55.797Z,25.24
2022-08-18T00:19:43.500Z,25.21
2022-08-18T00:22:15.202Z,25.18
2022-08-18T00:24:47.695Z,25.17
2022-08-18T00:27:30.630Z,25.15
2022-08-18T00:29:58.955Z,25.14
2022-08-18T00:32:28.797Z,25.13
2022-08-18T00:34:55.874Z,25.10
2022-08-18T00:37:23.971Z,25.10
2022-08-18T00:39:54.374Z,25.11
2022-08-18T00:42:27.777Z,25.10
2022-08-18T00:45:00.837Z,25.09
2022-08-18T00:47:33.109Z,25.10
2022-08-18T00:50:15.092Z,25.05
2022-08-18T00:52:45.196Z,25.01
2022-08-18T00:55:12.317Z,25.03
2022-08-18T00:57:39.703Z,25.00
2022-08-18T01:00:11.639Z,24.97
2022-08-18T01:02:42.041Z,24.96
2022-08-18T01:05:17.026Z,24.96
2022-08-18T01:07:48.233Z,24.94
2022-08-18T01:10:16.821Z,24.95
2022-08-18T01:12:46.871Z,24.93
2022-08-18T01:15:29.330Z,24.93
2022-08-18T01:18:22.931Z,24.91
2022-08-18T01:21:14.429Z,24.87
2022-08-18T01:23:41.742Z,24.86
2022-08-18T01:26:09.519Z,24.84
2022-08-18T01:28:40.824Z,24.85
2022-08-18T01:31:12.202Z,24.83
2022-08-18T01:33:44.289Z,24.82
2022-08-18T01:36:16.791Z,24.81
2022-08-18T01:38:44.522Z,24.79
2022-08-18T01:41:26.869Z,24.77
2022-08-18T01:43:58.726Z,24.74
2022-08-18T01:46:26.906Z,24.70
2022-08-18T01:48:53.833Z,24.71
2022-08-18T01:51:36.256Z,24.69
2022-08-18T01:54:08.467Z,24.67
2022-08-18T01:56:36.830Z,24.67
2022-08-18T01:59:04.021Z,24.66
2022-08-18T02:01:36.443Z,24.65
2022-08-18T02:04:33.307Z,24.60
2022-08-18T02:06:56.026Z,24.57
2022-08-18T02:09:24.198Z,24.57
2022-08-18T02:11:53.102Z,24.59
2022-08-18T02:14:27.136Z,24.54
2022-08-18T02:17:01.265Z,24.52
2022-08-18T02:19:48.175Z,24.49
2022-08-18T02:22:16.788Z,24.49
2022-08-18T02:24:44.704Z,24.49
2022-08-18T02:27:11.983Z,24.46
2022-08-18T02:29:39.089Z,24.45
2022-08-18T02:32:06.591Z,24.41
2022-08-18T02:34:33.429Z,24.37
2022-08-18T02:37:01.001Z,24.40
2022-08-18T02:39:29.051Z,24.35
2022-08-18T02:41:56.177Z,24.35
2022-08-18T02:44:22.978Z,24.32
2022-08-18T02:46:54.083Z,24.30
2022-08-18T02:49:20.931Z,24.30
2022-08-18T02:51:47.776Z,24.29
2022-08-18T02:54:14.958Z,24.27
2022-08-18T02:56:42.605Z,24.30
2022-08-18T02:59:12.321Z,24.24
2022-08-18T03:01:46.111Z,24.28
2022-08-18T03:04:16.065Z,24.22
2022-08-18T03:06:44.378Z,24.17
2022-08-18T03:09:13.839Z,24.19
2022-08-18T03:11:40.707Z,24.24
2022-08-18T03:14:11.341Z,24.16
2022-08-18T03:16:40.540Z,24.14
2022-08-18T03:19:20.821Z,24.18
2022-08-18T03:21:48.794Z,24.11
2022-08-18T03:24:22.499Z,24.09
2022-08-18T03:26:51.523Z,24.05
2022-08-18T03:29:18.706Z,24.07
2022-08-18T03:31:45.597Z,24.06
2022-08-18T03:34:12.861Z,24.03
2022-08-18T03:36:39.903Z,24.07
2022-08-18T03:39:08.250Z,24.02
2022-08-18T03:41:43.993Z,24.05
2022-08-18T03:44:24.689Z,24.08
2022-08-18T03:46:51.893Z,24.07
2022-08-18T03:49:20.466Z,24.05
2022-08-18T03:51:48.806Z,24.05
2022-08-18T03:54:16.964Z,24.07
2022-08-18T03:56:44.483Z,24.15
2022-08-18T03:59:17.010Z,24.03
2022-08-18T04:01:45.143Z,24.12
2022-08-18T04:04:13.527Z,24.07
2022-08-18T04:06:42.121Z,24.12
2022-08-18T04:09:11.117Z,24.12
2022-08-18T04:11:38.427Z,24.13
2022-08-18T04:14:06.174Z,24.17
2022-08-18T04:16:34.909Z,24.19
2022-08-18T04:19:04.879Z,24.28
2022-08-18T04:21:33.244Z,24.28
2022-08-18T04:24:04.999Z,24.33
2022-08-18T04:26:33.512Z,24.35
2022-08-18T04:29:03.743Z,24.43
2022-08-18T04:31:31.081Z,24.45
2022-08-18T04:33:59.125Z,24.47
2022-08-18T04:36:26.613Z,24.53
2022-08-18T04:38:56.314Z,24.53
2022-08-18T04:41:26.363Z,24.62
2022-08-18T04:44:01.265Z,24.59
2022-08-18T04:46:29.193Z,24.73
2022-08-18T04:48:59.331Z,24.71
2022-08-18T04:52:37.604Z,24.79
2022-08-18T04:54:40.478Z,24.81
2022-08-18T04:57:09.525Z,24.89
2022-08-18T04:59:37.149Z,24.97
2022-08-18T05:02:10.271Z,25.07
2022-08-18T05:04:40.895Z,25.07
2022-08-18T05:07:08.981Z,25.13
2022-08-18T05:09:41.193Z,25.20
2022-08-18T05:12:09.540Z,25.12
2022-08-18T05:14:36.445Z,25.21
2022-08-18T05:17:04.571Z,25.27
2022-08-18T05:19:31.937Z,25.33
2022-08-18T05:22:00.066Z,25.46
2022-08-18T05:24:36.843Z,25.37
2022-08-18T05:27:37.490Z,25.60
2022-08-18T05:30:06.001Z,26.04
2022-08-18T05:32:46.344Z,26.44
2022-08-18T05:35:18.339Z,27.48
2022-08-18T05:38:03.963Z,27.88
2022-08-18T05:40:32.039Z,27.94
2022-08-18T05:42:59.605Z,28.00
2022-08-18T05:45:27.090Z,27.80
2022-08-18T05:47:58.694Z,28.01
2022-08-18T05:50:26.289Z,28.06
2022-08-18T05:53:13.873Z,28.87
2022-08-18T05:56:20.666Z,29.31
2022-08-18T05:58:50.630Z,29.58
2022-08-18T06:01:20.568Z,29.68
2022-08-18T06:03:50.110Z,30.43
2022-08-18T06:06:19.565Z,29.94
2022-08-18T06:08:55.887Z,29.64
2022-08-18T06:11:23.108Z,29.40
2022-08-18T06:13:57.790Z,29.27
2022-08-18T06:16:38.876Z,29.32
2022-08-18T06:19:27.546Z,29.56
2022-08-18T06:21:54.368Z,30.12
2022-08-18T06:24:37.129Z,30.75
2022-08-18T06:27:15.092Z,31.25
2022-08-18T06:29:47.604Z,31.41
2022-08-18T06:32:34.796Z,32.05
2022-08-18T06:35:12.830Z,32.42
2022-08-18T06:38:03.399Z,32.75
2022-08-18T06:40:30.767Z,32.59
2022-08-18T06:42:59.871Z,32.72
2022-08-18T06:45:36.555Z,32.71
2022-08-18T06:48:15.564Z,32.93
2022-08-18T06:50:48.954Z,32.67
2022-08-18T06:53:27.013Z,32.84
2022-08-18T06:55:56.418Z,32.99
2022-08-18T06:58:30.858Z,32.97
2022-08-18T07:01:02.489Z,32.75
2022-08-18T07:03:36.178Z,32.94
2022-08-18T07:06:21.601Z,33.25
2022-08-18T07:08:50.431Z,33.27
2022-08-18T07:11:21.545Z,33.31
2022-08-18T07:14:09.391Z,33.51
2022-08-18T07:16:57.813Z,33.78
2022-08-18T07:19:28.195Z,34.16
2022-08-18T07:22:05.108Z,33.77
2022-08-18T07:24:33.831Z,34.01
2022-08-18T07:27:09.823Z,34.14
2022-08-18T07:29:39.161Z,34.41
2022-08-18T07:32:21.588Z,34.47
2022-08-18T07:34:53.299Z,34.41
2022-08-18T07:37:28.909Z,34.54
2022-08-18T07:39:59.234Z,34.32
2022-08-18T07:42:37.235Z,34.42
2022-08-18T07:45:25.260Z,34.40
2022-08-18T07:47:55.107Z,34.57
2022-08-18T07:50:55.155Z,34.55
2022-08-18T07:53:26.484Z,34.52
2022-08-18T07:55:58.831Z,34.38
2022-08-18T07:58:38.110Z,34.17
2022-08-18T08:01:11.385Z,34.28
2022-08-18T08:03:52.696Z,34.48
2022-08-18T08:06:28.767Z,34.38
2022-08-18T08:09:07.809Z,34.27
2022-08-18T08:11:37.620Z,34.34
2022-08-18T08:14:26.602Z,34.51
2022-08-18T08:16:56.516Z,34.58
2022-08-18T08:20:00.121Z,34.54
2022-08-18T08:22:47.478Z,34.53
2022-08-18T08:25:44.505Z,34.53
2022-08-18T08:28:07.747Z,34.41
2022-08-18T08:31:05.118Z,34.40
2022-08-18T08:33:49.565Z,34.41
2022-08-18T08:36:23.255Z,34.57
2022-08-18T08:38:54.529Z,34.42
2022-08-18T08:41:31.533Z,34.56
2022-08-18T08:44:18.042Z,34.51
2022-08-18T08:47:05.325Z,34.61
2022-08-18T08:49:35.657Z,34.67
2022-08-18T08:52:09.924Z,34.66
2022-08-18T08:54:42.906Z,34.64
2022-08-18T08:57:13.313Z,34.73
2022-08-18T08:59:40.846Z,34.78
2022-08-18T09:02:37.658Z,34.73
2022-08-18T09:05:17.390Z,34.59
2022-08-18T09:08:03.182Z,34.62
2022-08-18T09:10:51.482Z,34.70
2022-08-18T09:13:38.690Z,34.81
2022-08-18T09:16:13.897Z,34.51
2022-08-18T09:18:43.653Z,34.49
2022-08-18T09:21:16.047Z,34.53
2022-08-18T09:23:45.420Z,34.47
2022-08-18T09:26:27.803Z,34.42
2022-08-18T09:28:59.086Z,34.37
2022-08-18T09:31:27.757Z,34.29
2022-08-18T09:34:10.934Z,34.37
2022-08-18T09:36:44.116Z,34.41
2022-08-18T09:39:29.784Z,34.07
2022-08-18T09:42:09.385Z,33.95
2022-08-18T09:44:50.685Z,34.03
2022-08-18T09:47:30.460Z,34.01
2022-08-18T09:49:58.323Z,34.02
2022-08-18T09:55:23.943Z,33.74
2022-08-18T09:58:13.489Z,33.88
2022-08-18T10:00:40.799Z,33.99
2022-08-18T10:03:12.787Z,34.01
2022-08-18T10:05:40.422Z,33.91
2022-08-18T10:08:09.127Z,33.73
2022-08-18T10:11:00.017Z,33.61
2022-08-18T10:13:33.356Z,33.47
2022-08-18T10:16:15.847Z,33.35
2022-08-18T10:18:47.378Z,33.27
2022-08-18T10:21:22.792Z,33.17
2022-08-18T10:26:54.026Z,33.28
2022-08-18T10:29:28.708Z,33.26
2022-08-18T10:31:55.855Z,33.31
2022-08-18T10:34:52.498Z,33.38
2022-08-18T10:37:26.181Z,33.36
2022-08-18T10:39:55.995Z,33.30
2022-08-18T10:42:31.325Z,33.24
2022-08-18T10:45:12.244Z,33.28
2022-08-18T10:47:42.991Z,33.15
2022-08-18T10:50:22.557Z,33.03
2022-08-18T10:53:35.410Z,32.94
2022-08-18T10:56:05.151Z,32.96
2022-08-18T10:58:59.853Z,32.96
2022-08-18T11:01:33.351Z,33.03
2022-08-18T11:04:22.586Z,33.07
2022-08-18T11:07:09.750Z,33.15
2022-08-18T11:12:45.539Z,33.21
2022-08-18T11:15:26.952Z,33.28
2022-08-18T11:18:11.577Z,33.32
2022-08-18T11:23:27.800Z,33.29
2022-08-18T11:25:54.704Z,33.26
2022-08-18T11:28:30.172Z,33.29
2022-08-18T11:30:59.417Z,33.36
2022-08-18T11:33:27.793Z,33.34
2022-08-18T11:35:58.484Z,33.35
2022-08-18T11:38:29.597Z,33.44
2022-08-18T11:41:13.309Z,33.51
2022-08-18T11:43:43.176Z,33.51
2022-08-18T11:46:16.911Z,33.58
2022-08-18T11:48:51.861Z,33.69
2022-08-18T11:51:23.371Z,33.66
2022-08-18T11:53:59.237Z,33.55
2022-08-18T11:56:31.306Z,33.53
2022-08-18T11:58:59.353Z,33.53
2022-08-18T12:01:37.466Z,33.40
2022-08-18T12:04:14.663Z,33.35
2022-08-18T12:06:52.337Z,33.33
2022-08-18T12:10:04.447Z,33.31
2022-08-18T12:12:28.202Z,33.32
2022-08-18T12:15:07.935Z,33.31
2022-08-18T12:17:41.881Z,33.42
2022-08-18T12:20:11.830Z,33.48
2022-08-18T12:22:40.536Z,33.55
2022-08-18T12:25:10.657Z,33.53
2022-08-18T12:27:41.725Z,33.52
2022-08-18T12:30:16.568Z,33.52
2022-08-18T12:32:50.875Z,33.55
2022-08-18T12:35:31.119Z,33.56
2022-08-18T12:38:03.324Z,33.63
2022-08-18T12:40:38.374Z,33.68
2022-08-18T12:43:06.135Z,33.70
2022-08-18T12:45:33.828Z,33.64
2022-08-18T12:48:04.057Z,33.62
2022-08-18T12:50:36.234Z,33.60
2022-08-18T12:53:06.417Z,33.64
2022-08-18T12:55:43.682Z,33.69
2022-08-18T12:58:12.378Z,33.78
2022-08-18T13:00:41.041Z,33.79
2022-08-18T13:03:08.538Z,33.85
2022-08-18T13:05:37.390Z,33.88
2022-08-18T13:08:05.841Z,33.81
2022-08-18T13:10:45.446Z,33.74
2022-08-18T13:13:18.620Z,33.69
2022-08-18T13:15:58.371Z,33.71
2022-08-18T13:18:27.383Z,33.73
2022-08-18T13:20:58.281Z,33.75
2022-08-18T13:23:27.460Z,33.73
2022-08-18T13:26:01.219Z,33.73
2022-08-18T13:28:30.609Z,33.72
2022-08-18T13:30:59.041Z,33.73
2022-08-18T13:33:35.352Z,33.75
2022-08-18T13:36:13.152Z,33.86
2022-08-18T13:38:43.391Z,33.93
2022-08-18T13:41:15.648Z,33.97
2022-08-18T13:43:44.696Z,34.06
2022-08-18T13:46:17.308Z,34.10
2022-08-18T13:48:46.093Z,34.09
2022-08-18T13:51:17.979Z,34.04
2022-08-18T13:53:57.508Z,33.98
2022-08-18T13:56:31.932Z,34.01
2022-08-18T13:58:59.284Z,34.01
2022-08-18T14:01:44.761Z,34.00
2022-08-18T14:04:15.053Z,34.00
2022-08-18T14:06:51.310Z,33.99
2022-08-18T14:09:35.783Z,34.03
2022-08-18T14:12:16.084Z,34.05
2022-08-18T14:14:52.540Z,34.06
2022-08-18T14:17:20.381Z,34.09
2022-08-18T14:20:10.349Z,34.10
2022-08-18T14:22:56.752Z,34.10
2022-08-18T14:25:41.959Z,34.14
2022-08-18T14:28:11.850Z,34.12
2022-08-18T14:30:39.431Z,34.11
2022-08-18T14:33:07.812Z,34.10
2022-08-18T14:36:06.292Z,34.10
2022-08-18T14:38:25.779Z,34.12
2022-08-18T14:40:53.221Z,34.12
2022-08-18T14:43:24.890Z,34.14
2022-08-18T14:45:53.752Z,34.19
2022-08-18T14:48:27.541Z,34.18
2022-08-18T14:50:55.582Z,34.17
2022-08-18T14:53:23.915Z,34.15
2022-08-18T14:55:52.674Z,34.15
2022-08-18T14:58:20.905Z,34.18
2022-08-18T15:00:53.352Z,34.20
2022-08-18T15:03:22.224Z,34.15
2022-08-18T15:05:59.225Z,34.13
2022-08-18T15:08:26.942Z,34.13
2022-08-18T15:10:55.456Z,34.10
2022-08-18T15:13:26.551Z,34.10
2022-08-18T15:15:55.939Z,34.09
2022-08-18T15:18:29.557Z,34.05
2022-08-18T15:21:19.473Z,34.07
2022-08-18T15:24:20.697Z,34.05
2022-08-18T15:26:51.760Z,34.08
2022-08-18T15:29:27.997Z,34.11
2022-08-18T15:32:22.488Z,34.08
2022-08-18T15:34:51.453Z,34.03
2022-08-18T15:37:20.091Z,34.00
2022-08-18T15:39:55.623Z,33.92
2022-08-18T15:42:23.680Z,33.87
2022-08-18T15:44:52.752Z,33.84
2022-08-18T15:47:21.321Z,33.77
2022-08-18T15:49:48.605Z,33.73
2022-08-18T15:52:17.838Z,33.72
2022-08-18T15:54:48.004Z,33.65
2022-08-18T15:57:39.604Z,33.63
2022-08-18T16:00:06.196Z,33.64
2022-08-18T16:02:39.979Z,33.61
2022-08-18T16:05:10.261Z,33.57
2022-08-18T16:07:41.222Z,33.54
2022-08-18T16:10:12.680Z,33.51
2022-08-18T16:12:43.978Z,33.50
2022-08-18T16:15:19.170Z,33.47
2022-08-18T16:17:49.940Z,33.43
2022-08-18T16:20:18.790Z,33.39
2022-08-18T16:22:46.198Z,33.33
2022-08-18T16:25:13.742Z,33.31
2022-08-18T16:27:43.483Z,33.28
2022-08-18T16:30:11.614Z,33.25
2022-08-18T16:32:38.924Z,33.21
2022-08-18T16:35:06.536Z,33.17
2022-08-18T16:37:33.615Z,33.11
2022-08-18T16:40:01.120Z,33.07
2022-08-18T16:42:32.736Z,33.02
2022-08-18T16:45:00.094Z,32.98
2022-08-18T16:47:27.672Z,32.93
2022-08-18T16:52:45.317Z,32.85
2022-08-18T16:55:12.681Z,32.82
2022-08-18T16:57:59.772Z,32.80
2022-08-18T17:00:45.772Z,32.78
2022-08-18T17:03:38.304Z,32.74
2022-08-18T17:06:14.044Z,32.69
2022-08-18T17:08:41.533Z,32.64
2022-08-18T17:11:10.942Z,32.60
2022-08-18T17:13:39.652Z,32.58
2022-08-18T17:16:07.413Z,32.52
2022-08-18T17:18:36.146Z,32.43
2022-08-18T17:21:03.913Z,32.34
2022-08-18T17:23:31.170Z,32.25
2022-08-18T17:25:58.907Z,32.16
2022-08-18T17:28:31.394Z,32.10
2022-08-18T17:31:02.289Z,32.04
2022-08-18T17:33:31.621Z,31.96
2022-08-18T17:36:00.896Z,31.90
2022-08-18T17:38:58.536Z,31.84
2022-08-18T17:41:25.969Z,31.78
2022-08-18T17:43:55.236Z,31.74
2022-08-18T17:46:27.791Z,31.72
2022-08-18T17:49:03.502Z,31.68
2022-08-18T17:51:44.552Z,31.68
2022-08-18T17:54:23.455Z,31.61
2022-08-18T17:56:53.086Z,31.55
2022-08-18T17:59:42.972Z,31.49
2022-08-18T18:02:18.313Z,31.42
2022-08-18T18:04:58.303Z,31.36
2022-08-18T18:07:33.897Z,31.31
2022-08-18T18:10:08.982Z,31.25
2022-08-18T18:12:37.489Z,31.20
2022-08-18T18:15:07.173Z,31.15
2022-08-18T18:17:37.858Z,31.07
2022-08-18T18:20:23.996Z,31.01
2022-08-18T18:22:51.666Z,30.91
2022-08-18T18:25:34.393Z,30.83
2022-08-18T18:28:01.733Z,30.74
2022-08-18T18:30:32.882Z,30.67
2022-08-18T18:33:14.428Z,30.60
2022-08-18T18:35:54.561Z,30.53
2022-08-18T18:38:25.301Z,30.44
2022-08-18T18:41:16.739Z,30.34
2022-08-18T18:43:47.453Z,30.27
2022-08-18T18:46:33.104Z,30.21
2022-08-18T18:49:06.014Z,30.15
2022-08-18T18:51:45.414Z,30.11
2022-08-18T18:54:12.168Z,30.03
2022-08-18T18:56:43.364Z,30.00
2022-08-18T18:59:22.662Z,29.96
2022-08-18T19:01:58.862Z,29.90
2022-08-18T19:04:32.261Z,29.88
2022-08-18T19:07:05.302Z,29.84
2022-08-18T19:09:50.452Z,29.77
2022-08-18T19:12:20.594Z,29.69
2022-08-18T19:14:59.492Z,29.62
2022-08-18T19:17:33.629Z,29.57
2022-08-18T19:20:13.109Z,29.53
2022-08-18T19:22:49.433Z,29.44
2022-08-18T19:25:33.744Z,29.38
2022-08-18T19:28:19.727Z,29.29
2022-08-18T19:30:49.176Z,29.21
2022-08-18T19:33:43.505Z,29.16
2022-08-18T19:36:21.100Z,29.08
2022-08-18T19:38:54.273Z,29.02
2022-08-18T19:41:40.791Z,28.96
2022-08-18T19:44:29.278Z,28.90
2022-08-18T19:47:05.520Z,28.84
2022-08-18T19:49:36.303Z,28.81
2022-08-18T19:52:45.297Z,28.78
2022-08-18T19:55:27.541Z,28.76
2022-08-18T19:58:01.490Z,28.73
2022-08-18T20:00:44.726Z,28.67
2022-08-18T20:03:31.761Z,28.61
2022-08-18T20:05:58.874Z,28.58
2022-08-18T20:08:51.813Z,28.56
2022-08-18T20:11:18.975Z,28.50
2022-08-18T20:13:46.365Z,28.49
2022-08-18T20:16:24.433Z,28.49
2022-08-18T20:18:57.350Z,28.45
2022-08-18T20:21:30.780Z,28.43
2022-08-18T20:24:35.656Z,28.40
2022-08-18T20:27:35.925Z,28.34
2022-08-18T20:30:03.341Z,28.31
2022-08-18T20:32:35.735Z,28.23
2022-08-18T20:35:38.428Z,28.12
2022-08-18T20:38:24.114Z,28.04
2022-08-18T20:40:51.445Z,28.01
2022-08-18T20:43:27.578Z,27.99
2022-08-18T20:46:11.803Z,27.98
2022-08-18T20:49:06.114Z,27.92
2022-08-18T20:51:52.136Z,27.87
2022-08-18T20:54:31.280Z,27.85
2022-08-18T20:57:00.294Z,27.79
2022-08-18T20:59:38.983Z,27.75
2022-08-18T21:02:08.216Z,27.69
2022-08-18T21:04:48.620Z,27.61
2022-08-18T21:07:17.372Z,27.56
2022-08-18T21:09:49.869Z,27.51
2022-08-18T21:12:22.071Z,27.46
2022-08-18T21:14:54.445Z,27.43
2022-08-18T21:17:23.419Z,27.44
2022-08-18T21:19:50.360Z,27.43
2022-08-18T21:22:19.529Z,27.40
2022-08-18T21:24:50.238Z,27.36
2022-08-18T21:27:20.289Z,27.31
2022-08-18T21:29:49.552Z,27.25
2022-08-18T21:32:21.869Z,27.22
2022-08-18T21:34:49.225Z,27.16
2022-08-18T21:37:18.241Z,27.13
2022-08-18T21:39:49.582Z,27.11
2022-08-18T21:42:18.328Z,27.09
2022-08-18T21:44:46.482Z,27.08
2022-08-18T21:47:20.596Z,27.09
2022-08-18T21:50:02.574Z,27.10
2022-08-18T21:52:30.726Z,27.09
2022-08-18T21:55:02.316Z,27.09
2022-08-18T21:57:47.919Z,27.09
2022-08-18T22:00:19.352Z,27.09
2022-08-18T22:03:10.916Z,27.10
2022-08-18T22:05:58.962Z,27.09
2022-08-18T22:08:28.153Z,27.06
2022-08-18T22:11:41.858Z,27.06
2022-08-18T22:14:15.902Z,27.04
2022-08-18T22:16:44.920Z,27.03
2022-08-18T22:19:14.534Z,27.01
2022-08-18T22:21:49.321Z,26.99
2022-08-18T22:24:21.841Z,26.97
2022-08-18T22:26:50.865Z,26.97
2022-08-18T22:29:20.972Z,26.93
2022-08-18T22:31:50.476Z,26.89
2022-08-18T22:34:28.252Z,26.89
2022-08-18T22:36:59.949Z,26.86
2022-08-18T22:39:33.781Z,26.82
2022-08-18T22:42:00.706Z,26.79
2022-08-18T22:44:28.012Z,26.75
2022-08-18T22:46:54.889Z,26.71
2022-08-18T22:49:22.238Z,26.68
2022-08-18T22:51:50.501Z,26.66
2022-08-18T22:54:18.476Z,26.59
2022-08-18T22:56:53.869Z,26.61
2022-08-18T22:59:26.817Z,26.61
2022-08-18T23:01:54.770Z,26.60
2022-08-18T23:04:22.854Z,26.58
2022-08-18T23:06:53.692Z,26.55
2022-08-18T23:09:29.180Z,26.52
2022-08-18T23:12:01.102Z,26.53
2022-08-18T23:14:29.008Z,26.49
2022-08-18T23:16:55.837Z,26.44
2022-08-18T23:19:22.940Z,26.39
2022-08-18T23:21:51.749Z,26.37
2022-08-18T23:24:20.440Z,26.38
2022-08-18T23:26:49.360Z,26.32
2022-08-18T23:29:16.837Z,26.28
2022-08-18T23:31:44.728Z,26.27
2022-08-18T23:34:13.454Z,26.25
2022-08-18T23:36:45.152Z,26.23
2022-08-18T23:39:13.676Z,26.19
2022-08-18T23:41:40.591Z,26.17
2022-08-18T23:44:07.486Z,26.17
2022-08-18T23:46:34.943Z,26.18
2022-08-18T23:49:02.887Z,26.20
2022-08-18T23:51:31.572Z,26.19
2022-08-18T23:54:00.408Z,26.15
2022-08-18T23:56:28.363Z,26.09
2022-08-18T23:58:57.032Z,26.01
